Aérodrome :
LOGIN :

S'inscrire | Disclaimer

   EN    FR    IT 

 










Légende :    VFR   VFR Marginal   IFR   IFR Intensif   IFR Très Intensif
Visi : 
Plafond : 
>= 8 km
>= 3000ft
5 à 8 km
1000 à 3000 ft
1500m à 5 km
500 à 1000 ft
800 à 1500m
200 à 500 ft
< 800m
< 200 ft
Symboles :   Orages  Brouillard  Fortes neiges  Fortes précipitations  Vent > 20 kt
SIGMETs :   Divers  Orages  Givrage  Turbulence  Onde Orograph.  Cendres Volcan.







- Altitude de l'aérodrome : 433 ft
- Code IATA : CCF
- Voir les cartes d'approche


LFMK - Carcassonne

DERNIER METAR :
  • 251930Z AUTO 27009KT 9999 SCT042 OVC048 15/11 Q1021

METARs EXPIRÉS :
  • 251900Z AUTO 28009KT 9999 FEW029 OVC036 15/11 Q1021
  • 251830Z AUTO 30008KT 9999 FEW024 SCT030 OVC037 16/11 Q1021
  • 251800Z AUTO 29010KT 9999 FEW026 OVC034 16/12 Q1020 NOSIG
  • 251730Z AUTO 29012KT 9999 FEW024 OVC032 16/12 Q1020 NOSIG
  • 251700Z AUTO 30012KT 9999 BKN022 OVC029 16/12 Q1020 NOSIG

TAF TAF LFMK
Valide du 25 à 15h jusqu'au 26 à 15h UTC


251400Z 2515/2615 30015KT 9999 BKN020
TEMPO 2520/2604 BKN010
BECMG 2607/2609 CAVOK
Pas de NOTAMs connus pour ce terrain.



MET'MAP, la Météo Aéronautique d'un coup d'oeil ! - Copyright ORBIFLY Décembre 2007 - Disclaimer

ORBIFLY MET'MAP TEAM :

Programmation & Développement : Alexandra Zaïnal
Conception & Développement : Baudouin d'Aumeries
Co-Programmation & Développement : Marc-Olivier Méhu
Soutien technique & logistique : Manuel Goepfert

Contact : metmap@orbifly.com




SOURCES & CREDITS :

   NOAA